Time;durP1;ratioP1;P1;durP2;ratioP2;P2;SDS_P1;SDS_P2;PMS_P1;PMS_P2;Temp;Humidity;BMP_temperature;BMP_pressure;BME280_temperature;BME280_humidity;BME280_pressure;Samples;Min_cycle;Max_cycle;Signal;HPM_P1;HPM_P2
2023/02/19 00:01:42;;;;;;;16.67;9.98;;;27.90;78.10;;;;;;5044730;28;20040;-49
2023/02/19 00:04:23;;;;;;;30.17;24.90;;;27.90;78.10;;;;;;5044966;28;20037;-49
2023/02/19 00:06:51;;;;;;;20.52;16.98;;;27.90;78.40;;;;;;5051616;28;20289;-48
2023/02/19 00:09:19;;;;;;;25.17;20.58;;;27.90;77.50;;;;;;5030742;28;20029;-56
2023/02/19 00:11:46;;;;;;;50.60;44.95;;;27.90;77.60;;;;;;5044434;28;20057;-53
2023/02/19 00:14:19;;;;;;;46.63;41.63;;;27.90;77.70;;;;;;5044239;28;20100;-51
2023/02/19 00:16:46;;;;;;;21.50;18.13;;;27.90;77.80;;;;;;5053000;28;20214;-51
2023/02/19 00:19:16;;;;;;;21.45;15.90;;;27.90;77.20;;;;;;5051758;28;20049;-49
2023/02/19 00:21:42;;;;;;;26.02;22.98;;;27.90;77.30;;;;;;5050026;28;20088;-49
2023/02/19 00:24:12;;;;;;;24.48;17.55;;;27.90;77.30;;;;;;5044004;28;20256;-50
2023/02/19 00:26:40;;;;;;;19.77;14.88;;;27.80;77.10;;;;;;5044719;28;20100;-48
2023/02/19 00:29:06;;;;;;;28.33;22.98;;;27.80;77.30;;;;;;5044261;28;20340;-47
2023/02/19 00:31:34;;;;;;;17.20;13.50;;;27.80;77.20;;;;;;5044434;28;20033;-48
2023/02/19 00:34:04;;;;;;;19.63;13.00;;;27.80;77.00;;;;;;5044060;28;20055;-52
2023/02/19 00:36:32;;;;;;;28.45;20.45;;;27.80;76.80;;;;;;5044730;28;20033;-50
2023/02/19 00:39:00;;;;;;;24.38;18.73;;;27.80;76.80;;;;;;5046631;28;20075;-53
2023/02/19 00:41:27;;;;;;;30.27;21.73;;;27.80;76.60;;;;;;5049779;28;20036;-48
2023/02/19 00:43:57;;;;;;;28.35;22.58;;;27.80;76.50;;;;;;5050163;28;20032;-50
2023/02/19 00:46:29;;;;;;;19.92;15.77;;;27.70;76.20;;;;;;5056794;28;20320;-50
2023/02/19 00:48:57;;;;;;;24.48;19.48;;;27.70;76.20;;;;;;5051767;28;20028;-51
2023/02/19 00:51:27;;;;;;;18.67;11.02;;;27.70;76.30;;;;;;5049651;28;20025;-51
2023/02/19 00:53:54;;;;;;;14.43;10.57;;;27.70;75.70;;;;;;5064214;28;20021;-56
2023/02/19 00:56:22;;;;;;;20.88;15.98;;;27.70;75.80;;;;;;5064562;28;20043;-46
2023/02/19 00:58:49;;;;;;;13.30;10.43;;;27.70;75.80;;;;;;5058697;28;20029;-47
2023/02/19 01:01:16;;;;;;;13.55;8.55;;;27.70;75.50;;;;;;5082759;28;20040;-51
2023/02/19 01:03:43;;;;;;;15.55;9.90;;;27.60;75.40;;;;;;5062168;28;20091;-47
2023/02/19 01:06:12;;;;;;;17.17;8.73;;;27.60;75.60;;;;;;5045969;28;20040;-49
2023/02/19 01:08:39;;;;;;;12.43;8.55;;;27.60;75.40;;;;;;5047298;28;20293;-47
2023/02/19 01:11:06;;;;;;;14.18;10.00;;;27.60;75.30;;;;;;5063897;28;20067;-48
2023/02/19 01:13:34;;;;;;;9.70;7.22;;;27.60;75.00;;;;;;5063257;28;20086;-45
2023/02/19 01:16:19;;;;;;;14.02;7.90;;;27.60;75.10;;;;;;5062150;28;20090;-49
2023/02/19 01:18:47;;;;;;;10.93;8.43;;;27.60;74.90;;;;;;5043363;28;20022;-56
2023/02/19 01:21:21;;;;;;;13.10;7.72;;;27.60;74.80;;;;;;5049202;28;20221;-52
2023/02/19 01:23:50;;;;;;;12.05;7.75;;;27.60;74.70;;;;;;5053882;28;20060;-54
2023/02/19 01:26:24;;;;;;;12.48;8.88;;;27.50;74.30;;;;;;5051622;28;20025;-46
2023/02/19 01:28:51;;;;;;;8.70;7.20;;;27.50;74.40;;;;;;5051934;28;20048;-53
2023/02/19 01:31:22;;;;;;;12.23;8.68;;;27.50;74.00;;;;;;5062363;28;20059;-53
2023/02/19 01:33:58;;;;;;;27.23;11.00;;;27.50;74.10;;;;;;5063790;28;20033;-59
2023/02/19 01:36:26;;;;;;;32.53;22.30;;;27.50;74.10;;;;;;5063745;28;20041;-49
2023/02/19 01:38:59;;;;;;;14.18;9.95;;;27.50;74.30;;;;;;5063385;28;20317;-49
2023/02/19 01:41:27;;;;;;;12.88;10.10;;;27.50;73.70;;;;;;5064117;28;20040;-46
2023/02/19 01:44:12;;;;;;;17.00;13.00;;;27.50;73.50;;;;;;5063362;28;20312;-50
2023/02/19 01:46:39;;;;;;;14.95;10.38;;;27.50;74.10;;;;;;5054278;28;20029;-48
2023/02/19 01:49:15;;;;;;;11.38;8.40;;;27.40;73.50;;;;;;5043366;28;20095;-46
2023/02/19 01:51:47;;;;;;;16.08;11.73;;;27.50;73.10;;;;;;5043799;28;20059;-56
2023/02/19 01:54:18;;;;;;;21.45;12.63;;;27.50;73.50;;;;;;5036484;28;20025;-51
2023/02/19 01:56:46;;;;;;;12.50;8.27;;;27.50;73.60;;;;;;5061063;28;20032;-51
2023/02/19 01:59:13;;;;;;;15.75;10.90;;;27.50;73.00;;;;;;5061402;28;20060;-55
2023/02/19 02:01:43;;;;;;;12.77;9.13;;;27.50;73.20;;;;;;5055072;28;20037;-45
2023/02/19 02:04:12;;;;;;;15.00;8.20;;;27.40;73.00;;;;;;5064567;28;20037;-52
2023/02/19 02:06:56;;;;;;;13.10;8.32;;;27.40;72.50;;;;;;5066026;28;20033;-53
2023/02/19 02:12:12;;;;;;;22.67;15.13;;;27.30;72.80;;;;;;5066563;28;20094;-51
2023/02/19 02:14:42;;;;;;;24.63;16.90;;;27.30;72.60;;;;;;5065741;28;20032;-53
2023/02/19 02:17:33;;;;;;;31.52;22.02;;;27.40;72.70;;;;;;5066104;28;20168;-50
2023/02/19 02:20:18;;;;;;;19.75;13.50;;;27.30;72.50;;;;;;5065921;28;20079;-49
2023/02/19 02:23:03;;;;;;;17.60;14.20;;;27.30;72.20;;;;;;5066292;28;20037;-55
2023/02/19 02:25:57;;;;;;;13.30;10.80;;;27.30;72.20;;;;;;5066458;28;20084;-51
2023/02/19 02:28:56;;;;;;;21.25;14.68;;;27.30;72.00;;;;;;5066110;28;20041;-49
2023/02/19 02:31:33;;;;;;;25.67;18.05;;;27.30;71.80;;;;;;5019213;28;20221;-51
2023/02/19 02:34:13;;;;;;;22.25;15.85;;;27.30;71.60;;;;;;5086341;28;20316;-51
2023/02/19 02:36:44;;;;;;;19.95;14.40;;;27.30;71.80;;;;;;5086472;28;20091;-47
2023/02/19 02:39:18;;;;;;;17.48;13.23;;;27.30;71.60;;;;;;5086279;28;20086;-48
2023/02/19 02:42:25;;;;;;;19.83;13.57;;;27.30;71.60;;;;;;5086622;28;20238;-53
2023/02/19 02:44:40;;;;;;;22.85;14.27;;;27.20;71.60;;;;;;5085905;28;20032;-49
2023/02/19 02:47:40;;;;;;;18.63;12.25;;;27.20;71.70;;;;;;5086073;28;20021;-54
2023/02/19 02:50:06;;;;;;;27.33;17.70;;;27.20;71.70;;;;;;5085409;28;20250;-52
2023/02/19 02:55:29;;;;;;;23.85;15.95;;;27.20;71.90;;;;;;5086275;28;20216;-51
2023/02/19 02:57:55;;;;;;;25.95;17.00;;;27.20;71.90;;;;;;5085681;28;20028;-53
2023/02/19 03:02:09;;;;;;;22.50;13.45;;;27.20;72.00;;;;;;5086522;28;20207;-51
2023/02/19 03:03:14;;;;;;;19.60;13.38;;;27.20;71.90;;;;;;5086001;28;20062;-50
2023/02/19 03:05:52;;;;;;;21.30;14.25;;;27.20;71.80;;;;;;5086150;28;20032;-48
2023/02/19 03:08:30;;;;;;;19.77;14.45;;;27.10;72.00;;;;;;5085728;28;20040;-47
2023/02/19 03:19:17;;;;;;;17.65;12.23;;;27.10;72.30;;;;;;5085574;28;20024;-47
2023/02/19 03:19:26;;;;;;;18.85;13.75;;;27.10;72.50;;;;;;5085760;28;20133;-52
2023/02/19 03:22:20;;;;;;;18.05;11.95;;;27.00;72.40;;;;;;5085864;28;20038;-55
2023/02/19 03:27:48;;;;;;;14.18;10.52;;;27.00;72.70;;;;;;5085523;28;20031;-53
2023/02/19 03:30:24;;;;;;;17.90;12.77;;;27.00;72.60;;;;;;5085565;28;20024;-49
2023/02/19 03:33:06;;;;;;;16.92;12.05;;;26.90;72.70;;;;;;5085239;28;20317;-53
2023/02/19 03:35:40;;;;;;;15.48;11.55;;;27.00;72.80;;;;;;5085293;28;20031;-48
2023/02/19 03:38:27;;;;;;;14.63;11.10;;;27.00;73.50;;;;;;5085081;28;20037;-55
2023/02/19 03:41:02;;;;;;;16.55;11.02;;;27.00;72.90;;;;;;5085429;28;20335;-48
2023/02/19 03:43:48;;;;;;;12.68;10.38;;;27.00;72.80;;;;;;5085258;28;20237;-50
2023/02/19 03:46:44;;;;;;;15.18;11.98;;;26.90;73.00;;;;;;5085539;28;20028;-55
2023/02/19 03:49:31;;;;;;;13.07;10.98;;;26.90;73.30;;;;;;5084652;28;20028;-47
2023/02/19 03:52:12;;;;;;;12.80;10.63;;;26.90;73.10;;;;;;5084684;28;20044;-53
2023/02/19 03:54:42;;;;;;;11.45;10.20;;;26.90;73.30;;;;;;5084431;28;20040;-51
2023/02/19 03:57:34;;;;;;;12.77;9.65;;;26.80;73.20;;;;;;5084772;28;20020;-48
2023/02/19 04:00:10;;;;;;;15.70;9.90;;;26.90;73.20;;;;;;5084638;28;20127;-48
2023/02/19 04:02:54;;;;;;;14.32;10.98;;;26.90;73.30;;;;;;5084625;28;20380;-47
2023/02/19 04:05:25;;;;;;;15.88;12.02;;;26.80;73.30;;;;;;5084530;28;20228;-49
2023/02/19 04:07:56;;;;;;;14.85;10.68;;;26.80;73.50;;;;;;5084583;28;20087;-51
2023/02/19 04:10:24;;;;;;;14.80;11.70;;;26.80;73.50;;;;;;5085232;28;20032;-50
2023/02/19 04:13:09;;;;;;;16.33;12.68;;;26.70;73.40;;;;;;5084944;28;20044;-53
2023/02/19 04:15:39;;;;;;;22.63;16.08;;;26.80;73.60;;;;;;5084451;28;20095;-50
2023/02/19 04:18:12;;;;;;;20.17;15.05;;;26.70;73.40;;;;;;5084237;28;20096;-51
2023/02/19 04:20:43;;;;;;;21.33;15.88;;;26.70;73.50;;;;;;5067988;28;20078;-59
2023/02/19 04:23:11;;;;;;;19.05;15.45;;;26.70;73.60;;;;;;5084646;28;20025;-48
2023/02/19 04:25:49;;;;;;;16.25;13.02;;;26.70;73.40;;;;;;5084276;28;20039;-52
2023/02/19 04:28:17;;;;;;;16.23;12.10;;;26.60;73.50;;;;;;5084478;28;20028;-48
2023/02/19 04:30:45;;;;;;;15.90;12.57;;;26.70;73.60;;;;;;5084037;28;20029;-48
2023/02/19 04:33:12;;;;;;;12.82;11.40;;;26.60;73.70;;;;;;5066412;28;20092;-52
2023/02/19 04:35:39;;;;;;;14.55;10.50;;;26.60;73.60;;;;;;5083903;28;20070;-48
2023/02/19 04:38:07;;;;;;;15.80;10.32;;;26.60;73.60;;;;;;5084319;28;20100;-47
2023/02/19 04:40:33;;;;;;;12.05;10.43;;;26.60;73.60;;;;;;5084009;28;20028;-51
2023/02/19 04:43:00;;;;;;;13.15;9.68;;;26.60;73.60;;;;;;5084200;28;20044;-54
2023/02/19 04:45:27;;;;;;;12.43;9.23;;;26.60;73.40;;;;;;5084009;28;20220;-48
2023/02/19 04:47:53;;;;;;;11.52;8.40;;;26.60;73.30;;;;;;5084064;28;20033;-52
2023/02/19 04:50:21;;;;;;;10.73;8.68;;;26.60;73.30;;;;;;5083824;28;20028;-54
2023/02/19 04:52:48;;;;;;;17.20;12.20;;;26.60;73.20;;;;;;5066024;28;20035;-51
2023/02/19 04:55:14;;;;;;;16.38;12.43;;;26.60;73.40;;;;;;5084040;28;20036;-47
2023/02/19 04:57:41;;;;;;;16.70;13.38;;;26.60;73.30;;;;;;5084052;28;20204;-52
2023/02/19 05:00:09;;;;;;;19.88;14.88;;;26.60;73.00;;;;;;5083924;28;20028;-52
2023/02/19 05:02:35;;;;;;;22.85;16.45;;;26.60;73.00;;;;;;5084349;28;20036;-50
2023/02/19 05:05:02;;;;;;;25.35;15.65;;;26.60;73.00;;;;;;5084123;28;20320;-51
2023/02/19 05:07:29;;;;;;;21.08;12.82;;;26.60;72.80;;;;;;5083784;28;20104;-50
2023/02/19 05:09:57;;;;;;;17.05;12.23;;;26.60;72.90;;;;;;5075546;28;20016;-52
2023/02/19 05:12:23;;;;;;;13.85;10.25;;;26.60;72.70;;;;;;5083679;28;20111;-48
2023/02/19 05:14:50;;;;;;;15.32;12.45;;;26.60;72.50;;;;;;5083552;28;20037;-46
2023/02/19 05:17:16;;;;;;;22.98;15.68;;;26.60;72.40;;;;;;5083702;28;20104;-49
2023/02/19 05:19:43;;;;;;;17.60;14.32;;;26.60;72.30;;;;;;5083631;28;20028;-50
2023/02/19 05:22:10;;;;;;;17.73;14.02;;;26.60;72.20;;;;;;5083486;28;20028;-49
2023/02/19 05:24:36;;;;;;;18.30;13.27;;;26.60;71.90;;;;;;5083459;28;20020;-52
2023/02/19 05:27:03;;;;;;;17.20;13.95;;;26.60;71.90;;;;;;5083646;28;20032;-51
2023/02/19 05:29:31;;;;;;;23.55;14.52;;;26.60;72.00;;;;;;5083335;28;20019;-47
2023/02/19 05:31:57;;;;;;;18.52;12.80;;;26.60;72.00;;;;;;5083438;28;20028;-47
2023/02/19 05:34:24;;;;;;;15.93;11.88;;;26.50;72.10;;;;;;5083344;28;20031;-45
2023/02/19 05:36:50;;;;;;;14.65;11.13;;;26.60;71.90;;;;;;5083293;28;20037;-50
2023/02/19 05:39:17;;;;;;;14.90;11.35;;;26.50;71.90;;;;;;5086349;28;20077;-49
2023/02/19 05:41:43;;;;;;;18.80;13.02;;;26.60;71.80;;;;;;5087144;28;20024;-52
2023/02/19 05:44:10;;;;;;;24.50;16.50;;;26.50;71.70;;;;;;5086847;28;20039;-55
2023/02/19 05:46:37;;;;;;;27.77;18.05;;;26.60;71.80;;;;;;5086998;28;20240;-48
2023/02/19 05:49:04;;;;;;;31.70;20.83;;;26.50;71.70;;;;;;5086945;28;20213;-46
2023/02/19 05:51:30;;;;;;;35.33;26.13;;;26.50;71.90;;;;;;5086850;28;20032;-52
2023/02/19 05:53:57;;;;;;;30.77;21.23;;;26.50;72.30;;;;;;5087162;28;20025;-46
2023/02/19 05:56:44;;;;;;;21.35;15.27;;;26.40;72.30;;;;;;5086869;28;20066;-48
2023/02/19 05:59:21;;;;;;;40.67;27.90;;;26.50;72.40;;;;;;5087018;28;20213;-49
2023/02/19 06:01:50;;;;;;;48.42;35.58;;;26.40;72.50;;;;;;5086674;28;20036;-48
2023/02/19 06:04:18;;;;;;;33.40;25.08;;;26.40;72.90;;;;;;5086490;28;20047;-47
2023/02/19 06:06:46;;;;;;;28.05;22.05;;;26.30;73.00;;;;;;5086637;28;20028;-49
2023/02/19 06:09:13;;;;;;;24.70;18.23;;;26.40;73.20;;;;;;5086630;28;20309;-57
2023/02/19 06:11:42;;;;;;;22.40;16.63;;;26.30;73.10;;;;;;5086650;28;20036;-47
2023/02/19 06:14:10;;;;;;;22.05;15.60;;;26.30;73.30;;;;;;5086563;28;20377;-48
2023/02/19 06:16:36;;;;;;;20.40;14.27;;;26.30;73.40;;;;;;5086612;28;20032;-49
2023/02/19 06:19:03;;;;;;;21.15;14.88;;;26.30;73.40;;;;;;5086543;28;20059;-47
2023/02/19 06:21:30;;;;;;;17.90;14.60;;;26.30;73.10;;;;;;5086336;28;20354;-48
2023/02/19 06:23:57;;;;;;;21.23;16.10;;;26.30;73.10;;;;;;5086307;28;20047;-46
2023/02/19 06:26:24;;;;;;;20.90;15.77;;;26.30;73.10;;;;;;5086500;28;20083;-48
2023/02/19 06:28:52;;;;;;;21.25;15.68;;;26.30;73.20;;;;;;5086857;28;20028;-46
2023/02/19 06:31:22;;;;;;;17.17;12.38;;;26.20;73.00;;;;;;5086298;28;20052;-49
2023/02/19 06:33:51;;;;;;;18.73;13.10;;;26.30;73.00;;;;;;5086769;28;20225;-52
2023/02/19 06:36:20;;;;;;;17.70;11.73;;;26.30;72.90;;;;;;5086179;28;20110;-48
2023/02/19 06:38:47;;;;;;;11.93;10.32;;;26.30;73.30;;;;;;5086497;28;20025;-49
2023/02/19 06:41:14;;;;;;;13.75;10.75;;;26.30;72.90;;;;;;5086241;28;20048;-48
2023/02/19 06:43:40;;;;;;;16.60;11.35;;;26.30;72.70;;;;;;5086508;28;20033;-46
2023/02/19 06:46:07;;;;;;;16.15;12.20;;;26.30;72.80;;;;;;5085892;28;20016;-49
2023/02/19 06:48:35;;;;;;;11.85;10.25;;;26.30;72.90;;;;;;5086085;28;20403;-46
2023/02/19 06:51:02;;;;;;;13.35;10.02;;;26.30;72.70;;;;;;5085960;28;20020;-46
2023/02/19 06:53:28;;;;;;;12.23;9.43;;;26.30;73.00;;;;;;5086192;28;20204;-51
2023/02/19 06:56:05;;;;;;;14.63;9.52;;;26.20;72.80;;;;;;5085768;28;20346;-48
2023/02/19 06:58:32;;;;;;;13.75;11.05;;;26.20;72.60;;;;;;5086358;28;20040;-48
2023/02/19 07:00:59;;;;;;;23.55;17.20;;;26.20;72.50;;;;;;5085860;28;20036;-55
2023/02/19 07:03:26;;;;;;;24.00;18.55;;;26.20;72.60;;;;;;5085561;28;20074;-47
2023/02/19 07:05:53;;;;;;;22.35;15.63;;;26.10;72.70;;;;;;5085588;28;20038;-49
2023/02/19 07:08:19;;;;;;;23.30;16.80;;;26.10;72.80;;;;;;5085766;28;20062;-49
2023/02/19 07:10:54;;;;;;;22.92;17.77;;;26.10;72.70;;;;;;5085396;28;20023;-47
2023/02/19 07:13:20;;;;;;;21.95;18.75;;;26.10;72.80;;;;;;5085821;28;20360;-50
2023/02/19 07:15:47;;;;;;;23.42;17.90;;;26.10;72.90;;;;;;5085378;28;20313;-47
2023/02/19 07:18:14;;;;;;;18.80;15.90;;;26.00;72.90;;;;;;5085868;28;20320;-48
2023/02/19 07:20:40;;;;;;;16.83;14.40;;;26.00;72.90;;;;;;5085249;28;20021;-63
2023/02/19 07:23:07;;;;;;;17.15;13.00;;;26.00;72.90;;;;;;5085488;28;20358;-48
2023/02/19 07:25:33;;;;;;;15.15;11.60;;;26.00;72.80;;;;;;5085220;28;20054;-49
2023/02/19 07:28:00;;;;;;;15.25;10.57;;;26.00;72.70;;;;;;5085571;28;20024;-49
2023/02/19 07:30:27;;;;;;;15.40;11.93;;;26.00;72.60;;;;;;5084923;28;20095;-48
2023/02/19 07:32:53;;;;;;;21.08;14.43;;;26.00;72.50;;;;;;5085299;28;20032;-50
2023/02/19 07:35:20;;;;;;;18.02;15.02;;;26.00;72.50;;;;;;5085192;28;20035;-46
2023/02/19 07:37:46;;;;;;;18.08;13.15;;;26.00;72.40;;;;;;5085110;28;20067;-49
2023/02/19 07:40:14;;;;;;;16.48;12.55;;;26.00;72.40;;;;;;5085114;28;20024;-50
2023/02/19 07:42:41;;;;;;;16.10;10.77;;;26.00;72.50;;;;;;5085113;28;20070;-46
2023/02/19 07:45:07;;;;;;;12.77;9.25;;;26.00;72.40;;;;;;5084567;28;20027;-55
2023/02/19 07:47:34;;;;;;;12.35;7.68;;;26.10;72.60;;;;;;5084839;28;20045;-51
2023/02/19 07:50:02;;;;;;;11.27;7.47;;;26.00;73.00;;;;;;5084673;28;20025;-56
2023/02/19 07:52:29;;;;;;;9.80;7.30;;;26.00;72.50;;;;;;5084638;28;20025;-49
2023/02/19 07:54:55;;;;;;;8.75;6.22;;;26.00;73.00;;;;;;5084589;28;20146;-53
2023/02/19 07:57:22;;;;;;;10.35;6.38;;;26.00;72.70;;;;;;5084768;28;20024;-47
2023/02/19 07:59:48;;;;;;;11.82;9.70;;;26.00;72.90;;;;;;5084426;28;20027;-50
2023/02/19 08:05:02;;;;;;;8.18;7.10;;;25.90;73.90;;;;;;5084426;28;20085;-47
2023/02/19 08:07:36;;;;;;;11.25;7.00;;;26.00;74.20;;;;;;5084582;28;20249;-46
2023/02/19 08:15:44;;;;;;;17.30;11.35;;;25.90;74.50;;;;;;5084260;28;20104;-59
2023/02/19 08:18:11;;;;;;;14.57;12.93;;;25.90;74.70;;;;;;5084663;28;20036;-50
2023/02/19 08:20:38;;;;;;;27.20;19.17;;;25.80;75.10;;;;;;5084276;28;20220;-51
2023/02/19 08:23:06;;;;;;;18.13;14.02;;;25.80;75.60;;;;;;5084280;28;20024;-47
2023/02/19 08:25:33;;;;;;;17.52;12.40;;;25.80;75.40;;;;;;5084117;28;20033;-53
2023/02/19 08:28:00;;;;;;;23.50;18.65;;;25.80;75.50;;;;;;5084640;28;20073;-55
2023/02/19 08:30:28;;;;;;;23.88;18.63;;;25.80;75.60;;;;;;5083927;28;20028;-57
2023/02/19 08:32:55;;;;;;;24.35;19.38;;;25.70;75.40;;;;;;5075641;28;20193;-52
2023/02/19 08:35:22;;;;;;;21.00;16.08;;;25.80;75.40;;;;;;5084136;28;20020;-47
2023/02/19 08:37:48;;;;;;;19.63;14.68;;;25.70;75.40;;;;;;5084071;28;20032;-48
2023/02/19 08:40:15;;;;;;;19.95;15.20;;;25.70;75.40;;;;;;5084168;28;20320;-50
2023/02/19 08:42:43;;;;;;;24.27;17.02;;;25.70;75.30;;;;;;5084255;28;20043;-57
2023/02/19 08:45:10;;;;;;;28.25;20.27;;;25.70;75.20;;;;;;5083775;28;20025;-55
2023/02/19 08:47:37;;;;;;;26.55;19.50;;;25.70;75.00;;;;;;5084122;28;20024;-56
2023/02/19 08:50:05;;;;;;;23.38;16.98;;;25.70;74.80;;;;;;5083822;28;20100;-56
2023/02/19 08:52:32;;;;;;;19.25;14.35;;;25.70;74.60;;;;;;5083824;28;20032;-54
2023/02/19 08:54:59;;;;;;;20.45;15.15;;;25.70;74.40;;;;;;5083830;28;20059;-55
2023/02/19 08:57:28;;;;;;;28.45;20.92;;;25.70;74.50;;;;;;5084131;28;20043;-47
2023/02/19 08:59:58;;;;;;;41.35;30.58;;;25.70;74.40;;;;;;5083507;28;20070;-49
2023/02/19 09:02:25;;;;;;;56.40;40.05;;;25.70;74.40;;;;;;5083921;28;20032;-49
2023/02/19 09:04:51;;;;;;;49.10;35.05;;;25.60;74.30;;;;;;5083611;28;20028;-49
2023/02/19 09:07:19;;;;;;;42.95;28.05;;;25.60;74.20;;;;;;5083603;28;20037;-47
2023/02/19 09:09:45;;;;;;;32.55;21.85;;;25.60;74.00;;;;;;5083724;28;20075;-50
2023/02/19 09:12:12;;;;;;;28.45;20.13;;;25.60;73.90;;;;;;5083571;28;20057;-53
2023/02/19 09:14:39;;;;;;;42.08;29.92;;;25.60;74.00;;;;;;5087138;28;20037;-46
2023/02/19 09:17:07;;;;;;;50.65;37.38;;;25.60;74.20;;;;;;5087706;28;20297;-52
2023/02/19 09:19:34;;;;;;;61.75;47.97;;;25.60;74.00;;;;;;5087599;28;20035;-48
2023/02/19 09:22:01;;;;;;;52.25;39.45;;;25.60;74.10;;;;;;5087543;28;20208;-47
2023/02/19 09:24:28;;;;;;;30.98;24.00;;;25.60;74.20;;;;;;5087585;28;20023;-52
2023/02/19 09:26:55;;;;;;;25.67;20.15;;;25.60;74.20;;;;;;5087606;28;20032;-50
2023/02/19 09:29:24;;;;;;;28.25;17.85;;;25.60;74.80;;;;;;5087330;28;20023;-46
2023/02/19 09:31:54;;;;;;;19.20;14.38;;;25.70;74.20;;;;;;5087486;28;20032;-47
2023/02/19 09:34:21;;;;;;;15.40;12.65;;;25.70;74.10;;;;;;5087434;28;20024;-59
2023/02/19 09:36:49;;;;;;;13.48;9.63;;;25.60;73.90;;;;;;5087210;28;20051;-52
2023/02/19 09:39:15;;;;;;;19.42;10.25;;;25.70;74.40;;;;;;5086697;28;20031;-60
2023/02/19 09:41:51;;;;;;;16.48;11.70;;;25.70;74.10;;;;;;5053124;28;20190;-50
2023/02/19 09:44:34;;;;;;;36.88;25.13;;;25.70;73.80;;;;;;5049718;28;20414;-48
2023/02/19 09:47:02;;;;;;;;;;;25.80;73.60;;;;;;5053902;28;20030;-53
2023/02/19 09:49:36;;;;;;;45.95;33.35;;;25.80;73.40;;;;;;5057142;28;19905;-53
2023/02/19 09:52:08;;;;;;;53.30;38.28;;;25.80;73.40;;;;;;5067103;28;20087;-50
2023/02/19 09:54:38;;;;;;;49.05;35.47;;;25.80;73.40;;;;;;5067044;28;20084;-49
2023/02/19 09:57:05;;;;;;;41.25;29.73;;;25.80;73.30;;;;;;5066965;28;20033;-50
2023/02/19 09:59:44;;;;;;;39.83;26.48;;;25.80;73.00;;;;;;5066907;28;20140;-47
2023/02/19 10:02:20;;;;;;;27.85;21.20;;;25.80;72.80;;;;;;5066627;28;20033;-48
2023/02/19 10:04:52;;;;;;;31.08;21.85;;;25.80;72.60;;;;;;5066756;28;20060;-50
2023/02/19 10:07:20;;;;;;;;;;;25.80;72.60;;;;;;5067162;28;20048;-55
2023/02/19 10:10:29;;;;;;;23.00;17.02;;;25.80;72.60;;;;;;5066507;28;19905;-48
2023/02/19 10:13:10;;;;;;;26.38;18.38;;;25.80;72.60;;;;;;5066733;28;20337;-50
2023/02/19 10:15:57;;;;;;;18.98;14.60;;;25.80;72.80;;;;;;5066464;28;20033;-50
2023/02/19 10:18:29;;;;;;;20.08;13.70;;;25.80;73.00;;;;;;5066489;28;20037;-51
2023/02/19 10:20:56;;;;;;;26.13;19.83;;;25.80;73.00;;;;;;5059784;28;20221;-45
2023/02/19 10:23:24;;;;;;;31.13;22.80;;;25.80;73.30;;;;;;5051177;28;20056;-55
2023/02/19 10:25:57;;;;;;;21.88;17.67;;;25.80;73.60;;;;;;5046296;28;20022;-44
2023/02/19 10:28:28;;;;;;;19.65;13.65;;;25.70;73.70;;;;;;5046677;28;20209;-52
2023/02/19 10:30:57;;;;;;;18.90;13.88;;;25.70;73.80;;;;;;5046320;28;20245;-56
2023/02/19 10:33:25;;;;;;;20.58;14.65;;;25.70;74.00;;;;;;5046705;28;20018;-50
2023/02/19 10:35:55;;;;;;;17.55;12.70;;;25.70;74.30;;;;;;5046284;28;20422;-54
2023/02/19 10:38:34;;;;;;;21.65;16.08;;;25.70;74.20;;;;;;5046601;28;20042;-50
2023/02/19 10:41:16;;;;;;;23.70;15.77;;;25.70;74.40;;;;;;5046037;28;20025;-50
2023/02/19 10:43:54;;;;;;;29.85;22.10;;;25.70;74.30;;;;;;5046483;28;20033;-52
2023/02/19 10:46:36;;;;;;;28.05;23.00;;;25.70;74.50;;;;;;5045991;28;20029;-50
2023/02/19 10:49:18;;;;;;;35.30;29.10;;;25.70;75.00;;;;;;5046026;28;20028;-52
2023/02/19 10:51:46;;;;;;;41.20;32.53;;;25.60;75.20;;;;;;5045948;28;20034;-46
2023/02/19 10:54:20;;;;;;;32.33;26.33;;;25.60;75.30;;;;;;5046032;28;20025;-48
2023/02/19 10:56:46;;;;;;;26.73;19.30;;;25.70;75.40;;;;;;5045754;28;20053;-50
2023/02/19 10:59:23;;;;;;;20.23;14.95;;;25.60;75.40;;;;;;5045805;28;20260;-52
2023/02/19 11:02:15;;;;;;;33.85;18.15;;;25.60;75.20;;;;;;5045665;28;20053;-53
2023/02/19 11:04:41;;;;;;;54.00;25.63;;;25.60;75.30;;;;;;5045822;28;20032;-46
2023/02/19 11:07:18;;;;;;;61.38;26.88;;;25.60;75.70;;;;;;5045694;28;20037;-44
2023/02/19 11:09:48;;;;;;;62.08;27.27;;;25.60;76.20;;;;;;5050048;28;20010;-48
2023/02/19 11:12:28;;;;;;;56.75;31.15;;;25.60;76.50;;;;;;5061817;28;20068;-45
2023/02/19 11:14:54;;;;;;;69.32;38.78;;;25.60;76.70;;;;;;5065467;28;20016;-49
2023/02/19 11:17:29;;;;;;;67.65;45.67;;;25.50;77.00;;;;;;5065689;28;20047;-47
2023/02/19 11:20:06;;;;;;;71.80;49.08;;;25.50;77.10;;;;;;5047461;28;20016;-55
2023/02/19 11:22:41;;;;;;;67.45;45.60;;;25.50;77.10;;;;;;5065503;28;20075;-48
2023/02/19 11:25:20;;;;;;;58.10;36.30;;;25.50;77.00;;;;;;5065096;28;20024;-48
2023/02/19 11:28:07;;;;;;;42.65;27.77;;;25.60;77.50;;;;;;5065457;28;20103;-47
2023/02/19 11:30:40;;;;;;;44.13;26.58;;;25.60;76.70;;;;;;5065003;28;20327;-52
2023/02/19 11:33:16;;;;;;;30.65;20.27;;;25.60;76.90;;;;;;5065531;28;20036;-46
2023/02/19 11:35:43;;;;;;;24.40;17.45;;;25.60;77.00;;;;;;5064122;28;20036;-48
2023/02/19 11:38:12;;;;;;;26.88;16.52;;;25.60;77.00;;;;;;5065393;28;20037;-47
2023/02/19 11:40:49;;;;;;;23.17;15.73;;;25.60;77.00;;;;;;5065062;28;20017;-52
2023/02/19 11:43:48;;;;;;;23.08;15.00;;;25.60;76.90;;;;;;5065499;28;20036;-52
2023/02/19 11:46:32;;;;;;;18.38;13.50;;;25.60;77.50;;;;;;5064781;28;20344;-46
2023/02/19 11:49:02;;;;;;;26.00;13.13;;;25.60;76.90;;;;;;5065055;28;20036;-54
2023/02/19 11:52:17;;;;;;;20.95;11.70;;;25.60;76.80;;;;;;5064739;28;20017;-54
2023/02/19 11:54:49;;;;;;;16.58;9.75;;;25.60;76.60;;;;;;5040377;28;20272;-53
2023/02/19 11:57:42;;;;;;;;;;;25.70;76.40;;;;;;5065432;28;20023;-53
2023/02/19 12:00:25;;;;;;;17.95;10.90;;;25.70;76.40;;;;;;5060007;28;19911;-45
2023/02/19 12:03:17;;;;;;;15.32;10.43;;;25.70;76.20;;;;;;5064837;28;20036;-50
2023/02/19 12:06:18;;;;;;;18.50;10.90;;;25.80;76.40;;;;;;5064307;28;20043;-51
2023/02/19 12:09:00;;;;;;;14.25;10.38;;;25.80;76.30;;;;;;5064938;28;20108;-46
2023/02/19 12:11:37;;;;;;;12.68;8.63;;;25.90;76.30;;;;;;5064111;28;20053;-44
2023/02/19 12:14:31;;;;;;;13.23;9.25;;;25.90;75.90;;;;;;5064293;28;20035;-52
2023/02/19 12:17:09;;;;;;;14.60;8.90;;;26.00;75.90;;;;;;5064475;28;20107;-46
2023/02/19 12:20:14;;;;;;;15.05;8.15;;;26.00;75.70;;;;;;5064422;28;20017;-55
2023/02/19 12:23:04;;;;;;;12.90;7.95;;;26.10;75.70;;;;;;5064379;28;20029;-46
2023/02/19 12:25:56;;;;;;;14.65;8.68;;;26.10;75.60;;;;;;5064725;28;20234;-53
2023/02/19 12:28:34;;;;;;;12.15;7.97;;;26.20;75.70;;;;;;5064050;28;20029;-55
2023/02/19 12:31:33;;;;;;;18.88;8.60;;;26.30;76.20;;;;;;5064324;28;20088;-49
2023/02/19 12:34:39;;;;;;;21.00;8.10;;;26.30;76.10;;;;;;5064217;28;20305;-50
2023/02/19 12:37:38;;;;;;;20.20;8.32;;;26.30;76.10;;;;;;5064174;28;20017;-45
2023/02/19 12:40:45;;;;;;;17.02;8.18;;;26.40;76.30;;;;;;5018263;28;20061;-53
2023/02/19 12:43:23;;;;;;;16.63;7.95;;;26.50;76.80;;;;;;5063940;28;20021;-52
2023/02/19 12:45:57;;;;;;;16.48;7.70;;;26.50;76.90;;;;;;5064398;28;20101;-54
2023/02/19 12:48:42;;;;;;;17.20;7.75;;;26.50;77.10;;;;;;5063213;28;20009;-53
2023/02/19 12:51:56;;;;;;;20.55;7.97;;;26.50;77.20;;;;;;5063989;28;20036;-52
2023/02/19 12:54:59;;;;;;;22.10;7.88;;;26.60;77.40;;;;;;5028643;28;20033;-58
2023/02/19 12:57:31;;;;;;;21.40;8.30;;;26.60;77.20;;;;;;5019877;28;20321;-47
2023/02/19 13:00:30;;;;;;;19.90;7.90;;;26.60;77.80;;;;;;5063875;28;20048;-51
2023/02/19 13:03:01;;;;;;;25.90;7.50;;;26.60;77.30;;;;;;5063496;28;20037;-50
2023/02/19 13:05:49;;;;;;;18.38;7.65;;;26.60;77.20;;;;;;5064410;28;20048;-48
2023/02/19 13:08:33;;;;;;;20.08;7.55;;;26.70;76.80;;;;;;5063645;28;20044;-53
2023/02/19 13:11:24;;;;;;;16.83;7.95;;;26.70;77.00;;;;;;5063848;28;20037;-49
2023/02/19 13:14:04;;;;;;;17.98;7.45;;;26.70;76.90;;;;;;5063880;28;20380;-49
2023/02/19 13:16:33;;;;;;;21.85;7.50;;;26.70;76.90;;;;;;5063808;28;20344;-48
2023/02/19 13:19:03;;;;;;;13.48;8.00;;;26.70;76.80;;;;;;5063960;28;20039;-52
2023/02/19 13:24:27;;;;;;;13.27;7.60;;;26.80;77.00;;;;;;5063569;28;20043;-50
2023/02/19 13:27:27;;;;;;;16.20;7.50;;;26.80;76.90;;;;;;5063482;28;20013;-48